sensor_id;sensor_type;location;lat;lon;timestamp;temperature;humidity
2202;DHT22;1107;48.654;9.250;2024-03-29T00:00:55;6.90;99.90
2202;DHT22;1107;48.654;9.250;2024-03-29T00:03:21;7.00;99.90
2202;DHT22;1107;48.654;9.250;2024-03-29T00:05:46;7.00;99.90
2202;DHT22;1107;48.654;9.250;2024-03-29T00:08:12;7.10;99.90
2202;DHT22;1107;48.654;9.250;2024-03-29T00:10:38;7.10;99.90
2202;DHT22;1107;48.654;9.250;2024-03-29T00:13:05;7.10;99.90
2202;DHT22;1107;48.654;9.250;2024-03-29T00:15:31;7.10;99.90
2202;DHT22;1107;48.654;9.250;2024-03-29T00:17:57;7.00;99.90
2202;DHT22;1107;48.654;9.250;2024-03-29T00:20:23;7.00;99.90
2202;DHT22;1107;48.654;9.250;2024-03-29T00:22:48;6.90;99.90
2202;DHT22;1107;48.654;9.250;2024-03-29T00:25:14;6.90;99.90
2202;DHT22;1107;48.654;9.250;2024-03-29T00:27:40;6.80;99.90
2202;DHT22;1107;48.654;9.250;2024-03-29T00:30:07;6.90;99.90
2202;DHT22;1107;48.654;9.250;2024-03-29T00:32:33;6.90;99.90
2202;DHT22;1107;48.654;9.250;2024-03-29T00:34:59;7.00;99.90
2202;DHT22;1107;48.654;9.250;2024-03-29T00:37:25;7.10;99.90
2202;DHT22;1107;48.654;9.250;2024-03-29T00:39:51;7.20;99.90
2202;DHT22;1107;48.654;9.250;2024-03-29T00:42:16;7.20;99.90
2202;DHT22;1107;48.654;9.250;2024-03-29T00:44:42;7.30;99.90
2202;DHT22;1107;48.654;9.250;2024-03-29T00:47:10;7.30;99.90
2202;DHT22;1107;48.654;9.250;2024-03-29T00:49:35;7.30;99.90
2202;DHT22;1107;48.654;9.250;2024-03-29T00:52:02;7.30;99.90
2202;DHT22;1107;48.654;9.250;2024-03-29T00:54:28;7.40;99.90
2202;DHT22;1107;48.654;9.250;2024-03-29T00:56:53;7.40;99.90
2202;DHT22;1107;48.654;9.250;2024-03-29T00:59:19;7.40;99.90
2202;DHT22;1107;48.654;9.250;2024-03-29T01:01:46;7.30;99.90
2202;DHT22;1107;48.654;9.250;2024-03-29T01:04:13;7.30;99.90
2202;DHT22;1107;48.654;9.250;2024-03-29T01:06:39;7.30;99.90
2202;DHT22;1107;48.654;9.250;2024-03-29T01:09:05;7.40;99.90
2202;DHT22;1107;48.654;9.250;2024-03-29T01:11:31;7.40;99.90
2202;DHT22;1107;48.654;9.250;2024-03-29T01:13:56;7.40;99.90
2202;DHT22;1107;48.654;9.250;2024-03-29T01:16:22;7.40;99.90
2202;DHT22;1107;48.654;9.250;2024-03-29T01:18:48;7.40;99.90
2202;DHT22;1107;48.654;9.250;2024-03-29T01:21:15;7.40;99.90
2202;DHT22;1107;48.654;9.250;2024-03-29T01:23:41;7.40;99.90
2202;DHT22;1107;48.654;9.250;2024-03-29T01:26:07;7.30;99.90
2202;DHT22;1107;48.654;9.250;2024-03-29T01:28:33;7.30;99.90
2202;DHT22;1107;48.654;9.250;2024-03-29T01:30:59;7.30;99.90
2202;DHT22;1107;48.654;9.250;2024-03-29T01:33:25;7.30;99.90
2202;DHT22;1107;48.654;9.250;2024-03-29T01:35:51;7.30;99.90
2202;DHT22;1107;48.654;9.250;2024-03-29T01:38:18;7.30;99.90
2202;DHT22;1107;48.654;9.250;2024-03-29T01:40:44;7.30;99.90
2202;DHT22;1107;48.654;9.250;2024-03-29T01:43:10;7.30;99.90
2202;DHT22;1107;48.654;9.250;2024-03-29T01:45:38;7.30;99.90
2202;DHT22;1107;48.654;9.250;2024-03-29T01:48:05;7.30;99.90
2202;DHT22;1107;48.654;9.250;2024-03-29T01:50:32;7.30;99.90
2202;DHT22;1107;48.654;9.250;2024-03-29T01:52:59;7.40;99.90
2202;DHT22;1107;48.654;9.250;2024-03-29T01:55:27;7.40;99.90
2202;DHT22;1107;48.654;9.250;2024-03-29T01:57:54;7.40;99.90
2202;DHT22;1107;48.654;9.250;2024-03-29T02:00:21;7.40;99.90
2202;DHT22;1107;48.654;9.250;2024-03-29T02:02:46;7.40;99.90
2202;DHT22;1107;48.654;9.250;2024-03-29T02:05:14;7.40;99.90
2202;DHT22;1107;48.654;9.250;2024-03-29T02:07:40;7.40;99.90
2202;DHT22;1107;48.654;9.250;2024-03-29T02:10:09;7.40;99.90
2202;DHT22;1107;48.654;9.250;2024-03-29T02:12:39;7.40;99.90
2202;DHT22;1107;48.654;9.250;2024-03-29T02:15:06;7.40;99.90
2202;DHT22;1107;48.654;9.250;2024-03-29T02:17:33;7.40;99.90
2202;DHT22;1107;48.654;9.250;2024-03-29T02:19:59;7.50;99.90
2202;DHT22;1107;48.654;9.250;2024-03-29T02:22:27;7.50;99.90
2202;DHT22;1107;48.654;9.250;2024-03-29T02:24:55;7.50;99.90
2202;DHT22;1107;48.654;9.250;2024-03-29T02:27:22;7.50;99.90
2202;DHT22;1107;48.654;9.250;2024-03-29T02:29:49;7.50;99.90
2202;DHT22;1107;48.654;9.250;2024-03-29T02:32:16;7.50;99.90
2202;DHT22;1107;48.654;9.250;2024-03-29T02:34:42;7.50;99.90
2202;DHT22;1107;48.654;9.250;2024-03-29T02:37:09;7.50;99.90
2202;DHT22;1107;48.654;9.250;2024-03-29T02:39:36;7.50;99.90
2202;DHT22;1107;48.654;9.250;2024-03-29T02:42:05;7.50;99.90
2202;DHT22;1107;48.654;9.250;2024-03-29T02:44:32;7.40;99.90
2202;DHT22;1107;48.654;9.250;2024-03-29T02:46:58;7.50;99.90
2202;DHT22;1107;48.654;9.250;2024-03-29T02:49:24;7.50;99.90
2202;DHT22;1107;48.654;9.250;2024-03-29T02:51:51;7.50;99.90
2202;DHT22;1107;48.654;9.250;2024-03-29T02:54:18;7.40;99.90
2202;DHT22;1107;48.654;9.250;2024-03-29T02:56:45;7.40;99.90
2202;DHT22;1107;48.654;9.250;2024-03-29T02:59:12;7.40;99.90
2202;DHT22;1107;48.654;9.250;2024-03-29T03:01:39;7.40;99.90
2202;DHT22;1107;48.654;9.250;2024-03-29T03:04:05;7.40;99.90
2202;DHT22;1107;48.654;9.250;2024-03-29T03:06:32;7.50;99.90
2202;DHT22;1107;48.654;9.250;2024-03-29T03:08:57;7.50;99.90
2202;DHT22;1107;48.654;9.250;2024-03-29T03:11:41;7.60;99.90
2202;DHT22;1107;48.654;9.250;2024-03-29T03:14:08;7.70;99.90
2202;DHT22;1107;48.654;9.250;2024-03-29T03:16:36;7.70;99.90
2202;DHT22;1107;48.654;9.250;2024-03-29T03:19:03;7.80;99.90
2202;DHT22;1107;48.654;9.250;2024-03-29T03:21:29;7.80;99.90
2202;DHT22;1107;48.654;9.250;2024-03-29T03:23:55;7.90;99.90
2202;DHT22;1107;48.654;9.250;2024-03-29T03:26:21;8.00;99.90
2202;DHT22;1107;48.654;9.250;2024-03-29T03:28:48;8.00;99.90
2202;DHT22;1107;48.654;9.250;2024-03-29T03:31:13;8.10;99.90
2202;DHT22;1107;48.654;9.250;2024-03-29T03:33:41;8.10;99.90
2202;DHT22;1107;48.654;9.250;2024-03-29T03:36:07;8.10;99.90
2202;DHT22;1107;48.654;9.250;2024-03-29T03:38:34;8.10;99.90
2202;DHT22;1107;48.654;9.250;2024-03-29T03:41:02;8.10;99.90
2202;DHT22;1107;48.654;9.250;2024-03-29T03:43:29;8.10;99.90
2202;DHT22;1107;48.654;9.250;2024-03-29T03:45:59;8.10;99.90
2202;DHT22;1107;48.654;9.250;2024-03-29T03:48:26;8.10;99.90
2202;DHT22;1107;48.654;9.250;2024-03-29T03:50:53;8.20;99.90
2202;DHT22;1107;48.654;9.250;2024-03-29T03:53:20;8.10;99.90
2202;DHT22;1107;48.654;9.250;2024-03-29T03:55:45;8.20;99.90
2202;DHT22;1107;48.654;9.250;2024-03-29T03:58:13;8.10;99.90
2202;DHT22;1107;48.654;9.250;2024-03-29T04:00:39;8.20;99.90
2202;DHT22;1107;48.654;9.250;2024-03-29T04:03:06;8.20;99.90
2202;DHT22;1107;48.654;9.250;2024-03-29T04:05:31;8.20;99.90
2202;DHT22;1107;48.654;9.250;2024-03-29T04:07:59;8.20;99.90
2202;DHT22;1107;48.654;9.250;2024-03-29T04:10:25;8.30;99.90
2202;DHT22;1107;48.654;9.250;2024-03-29T04:12:52;8.30;99.90
2202;DHT22;1107;48.654;9.250;2024-03-29T04:15:18;8.30;99.90
2202;DHT22;1107;48.654;9.250;2024-03-29T04:17:44;8.30;99.90
2202;DHT22;1107;48.654;9.250;2024-03-29T04:20:10;8.30;99.90
2202;DHT22;1107;48.654;9.250;2024-03-29T04:22:37;8.30;99.90
2202;DHT22;1107;48.654;9.250;2024-03-29T04:25:04;8.30;99.90
2202;DHT22;1107;48.654;9.250;2024-03-29T04:27:31;8.30;99.90
2202;DHT22;1107;48.654;9.250;2024-03-29T04:29:57;8.20;99.90
2202;DHT22;1107;48.654;9.250;2024-03-29T04:32:24;8.30;99.90
2202;DHT22;1107;48.654;9.250;2024-03-29T04:34:49;8.30;99.90
2202;DHT22;1107;48.654;9.250;2024-03-29T04:37:17;8.30;99.90
2202;DHT22;1107;48.654;9.250;2024-03-29T04:39:44;8.30;99.90
2202;DHT22;1107;48.654;9.250;2024-03-29T04:42:12;8.30;99.90
2202;DHT22;1107;48.654;9.250;2024-03-29T04:44:40;8.30;99.90
2202;DHT22;1107;48.654;9.250;2024-03-29T04:47:07;8.30;99.90
2202;DHT22;1107;48.654;9.250;2024-03-29T04:49:35;8.30;99.90
2202;DHT22;1107;48.654;9.250;2024-03-29T04:52:02;8.30;99.90
2202;DHT22;1107;48.654;9.250;2024-03-29T04:54:29;8.30;99.90
2202;DHT22;1107;48.654;9.250;2024-03-29T04:56:56;8.30;99.90
2202;DHT22;1107;48.654;9.250;2024-03-29T04:59:24;8.30;99.90
2202;DHT22;1107;48.654;9.250;2024-03-29T05:01:51;8.40;99.90
2202;DHT22;1107;48.654;9.250;2024-03-29T05:04:18;8.40;99.90
2202;DHT22;1107;48.654;9.250;2024-03-29T05:06:50;8.40;99.90
2202;DHT22;1107;48.654;9.250;2024-03-29T05:09:17;8.40;99.90
2202;DHT22;1107;48.654;9.250;2024-03-29T05:11:44;8.40;99.90
2202;DHT22;1107;48.654;9.250;2024-03-29T05:14:12;8.40;99.90
2202;DHT22;1107;48.654;9.250;2024-03-29T05:16:40;8.40;99.90
2202;DHT22;1107;48.654;9.250;2024-03-29T05:19:07;8.50;99.90
2202;DHT22;1107;48.654;9.250;2024-03-29T05:21:34;8.50;99.90
2202;DHT22;1107;48.654;9.250;2024-03-29T05:24:01;8.50;99.90
2202;DHT22;1107;48.654;9.250;2024-03-29T05:26:27;8.50;99.90
2202;DHT22;1107;48.654;9.250;2024-03-29T05:28:54;8.50;99.90
2202;DHT22;1107;48.654;9.250;2024-03-29T05:31:23;8.50;99.90
2202;DHT22;1107;48.654;9.250;2024-03-29T05:33:51;8.50;99.90
2202;DHT22;1107;48.654;9.250;2024-03-29T05:36:18;8.50;99.90
2202;DHT22;1107;48.654;9.250;2024-03-29T05:38:45;8.60;99.90
2202;DHT22;1107;48.654;9.250;2024-03-29T05:41:12;8.60;99.90
2202;DHT22;1107;48.654;9.250;2024-03-29T05:43:38;8.60;99.90
2202;DHT22;1107;48.654;9.250;2024-03-29T05:46:05;8.60;99.90
2202;DHT22;1107;48.654;9.250;2024-03-29T05:48:32;8.80;99.90
2202;DHT22;1107;48.654;9.250;2024-03-29T05:51:00;8.70;99.90
2202;DHT22;1107;48.654;9.250;2024-03-29T05:53:27;8.70;99.90
2202;DHT22;1107;48.654;9.250;2024-03-29T05:55:54;8.80;99.90
2202;DHT22;1107;48.654;9.250;2024-03-29T05:58:21;8.80;99.90
2202;DHT22;1107;48.654;9.250;2024-03-29T06:00:48;8.80;99.90
2202;DHT22;1107;48.654;9.250;2024-03-29T06:03:14;8.90;99.90
2202;DHT22;1107;48.654;9.250;2024-03-29T06:05:41;8.90;99.90
2202;DHT22;1107;48.654;9.250;2024-03-29T06:08:10;8.90;99.90
2202;DHT22;1107;48.654;9.250;2024-03-29T06:10:36;8.90;99.90
2202;DHT22;1107;48.654;9.250;2024-03-29T06:13:03;9.00;99.90
2202;DHT22;1107;48.654;9.250;2024-03-29T06:15:35;9.10;99.90
2202;DHT22;1107;48.654;9.250;2024-03-29T06:18:20;9.30;99.90
2202;DHT22;1107;48.654;9.250;2024-03-29T06:20:47;9.40;99.90
2202;DHT22;1107;48.654;9.250;2024-03-29T06:23:15;9.40;99.90
2202;DHT22;1107;48.654;9.250;2024-03-29T06:25:42;9.40;99.90
2202;DHT22;1107;48.654;9.250;2024-03-29T06:28:09;9.40;99.90
2202;DHT22;1107;48.654;9.250;2024-03-29T06:30:35;9.30;99.90
2202;DHT22;1107;48.654;9.250;2024-03-29T06:33:02;9.30;99.90
2202;DHT22;1107;48.654;9.250;2024-03-29T06:35:29;9.30;99.90
2202;DHT22;1107;48.654;9.250;2024-03-29T06:37:56;9.30;99.90
2202;DHT22;1107;48.654;9.250;2024-03-29T06:40:24;9.30;99.90
2202;DHT22;1107;48.654;9.250;2024-03-29T06:42:51;9.40;99.90
2202;DHT22;1107;48.654;9.250;2024-03-29T06:45:18;9.50;99.90
2202;DHT22;1107;48.654;9.250;2024-03-29T06:47:45;9.60;99.90
2202;DHT22;1107;48.654;9.250;2024-03-29T06:50:11;9.80;99.90
2202;DHT22;1107;48.654;9.250;2024-03-29T06:52:38;9.80;99.90
2202;DHT22;1107;48.654;9.250;2024-03-29T06:55:05;9.80;99.90
2202;DHT22;1107;48.654;9.250;2024-03-29T06:57:34;9.80;99.90
2202;DHT22;1107;48.654;9.250;2024-03-29T07:00:01;9.80;99.90
2202;DHT22;1107;48.654;9.250;2024-03-29T07:02:29;9.80;99.90
2202;DHT22;1107;48.654;9.250;2024-03-29T07:04:55;9.90;99.90
2202;DHT22;1107;48.654;9.250;2024-03-29T07:07:22;10.00;99.90
2202;DHT22;1107;48.654;9.250;2024-03-29T07:09:49;10.10;99.90
2202;DHT22;1107;48.654;9.250;2024-03-29T07:12:16;10.10;99.90
2202;DHT22;1107;48.654;9.250;2024-03-29T07:14:45;10.10;99.90
2202;DHT22;1107;48.654;9.250;2024-03-29T07:17:11;10.20;99.90
2202;DHT22;1107;48.654;9.250;2024-03-29T07:19:38;10.20;99.90
2202;DHT22;1107;48.654;9.250;2024-03-29T07:22:05;10.10;99.90
2202;DHT22;1107;48.654;9.250;2024-03-29T07:24:32;10.10;99.90
2202;DHT22;1107;48.654;9.250;2024-03-29T07:26:59;10.10;99.90
2202;DHT22;1107;48.654;9.250;2024-03-29T07:29:25;9.90;1.00
2202;DHT22;1107;48.654;9.250;2024-03-29T07:31:53;9.80;1.00
2202;DHT22;1107;48.654;9.250;2024-03-29T07:34:20;9.70;1.00
2202;DHT22;1107;48.654;9.250;2024-03-29T07:36:47;9.60;1.00
2202;DHT22;1107;48.654;9.250;2024-03-29T07:39:14;9.50;1.00
2202;DHT22;1107;48.654;9.250;2024-03-29T07:41:40;9.50;99.90
2202;DHT22;1107;48.654;9.250;2024-03-29T07:44:07;9.40;1.00
2202;DHT22;1107;48.654;9.250;2024-03-29T07:46:34;9.40;99.90
2202;DHT22;1107;48.654;9.250;2024-03-29T07:49:03;9.40;1.00
2202;DHT22;1107;48.654;9.250;2024-03-29T07:51:30;9.40;1.00
2202;DHT22;1107;48.654;9.250;2024-03-29T07:53:56;9.50;1.00
2202;DHT22;1107;48.654;9.250;2024-03-29T07:56:23;9.50;1.00
2202;DHT22;1107;48.654;9.250;2024-03-29T07:58:51;9.60;1.00
2202;DHT22;1107;48.654;9.250;2024-03-29T08:01:19;9.70;1.00
2202;DHT22;1107;48.654;9.250;2024-03-29T08:03:46;9.70;1.00
2202;DHT22;1107;48.654;9.250;2024-03-29T08:06:14;9.70;1.00
2202;DHT22;1107;48.654;9.250;2024-03-29T08:08:43;9.80;1.00
2202;DHT22;1107;48.654;9.250;2024-03-29T08:11:10;9.80;1.00
2202;DHT22;1107;48.654;9.250;2024-03-29T08:13:37;9.80;1.00
2202;DHT22;1107;48.654;9.250;2024-03-29T08:16:04;9.90;17.10
2202;DHT22;1107;48.654;9.250;2024-03-29T08:18:31;9.90;1.00
2202;DHT22;1107;48.654;9.250;2024-03-29T08:20:58;9.80;1.00
2202;DHT22;1107;48.654;9.250;2024-03-29T08:23:26;9.90;1.00
2202;DHT22;1107;48.654;9.250;2024-03-29T08:25:52;10.00;1.00
2202;DHT22;1107;48.654;9.250;2024-03-29T08:28:21;10.00;1.00
2202;DHT22;1107;48.654;9.250;2024-03-29T08:30:56;10.10;1.00
2202;DHT22;1107;48.654;9.250;2024-03-29T08:33:23;10.20;1.00
2202;DHT22;1107;48.654;9.250;2024-03-29T08:35:50;10.20;1.00
2202;DHT22;1107;48.654;9.250;2024-03-29T08:38:17;10.30;99.90
2202;DHT22;1107;48.654;9.250;2024-03-29T08:40:45;10.40;1.00
2202;DHT22;1107;48.654;9.250;2024-03-29T08:43:13;10.60;1.00
2202;DHT22;1107;48.654;9.250;2024-03-29T08:45:40;10.80;99.90
2202;DHT22;1107;48.654;9.250;2024-03-29T08:48:07;11.00;1.00
2202;DHT22;1107;48.654;9.250;2024-03-29T08:50:34;11.00;1.00
2202;DHT22;1107;48.654;9.250;2024-03-29T08:53:01;11.10;1.00
2202;DHT22;1107;48.654;9.250;2024-03-29T08:55:27;11.10;99.90
2202;DHT22;1107;48.654;9.250;2024-03-29T08:57:55;11.10;1.00
2202;DHT22;1107;48.654;9.250;2024-03-29T09:00:21;11.10;99.90
2202;DHT22;1107;48.654;9.250;2024-03-29T09:02:48;11.10;1.00
2202;DHT22;1107;48.654;9.250;2024-03-29T09:05:15;11.00;99.90
2202;DHT22;1107;48.654;9.250;2024-03-29T09:07:42;11.00;1.00
2202;DHT22;1107;48.654;9.250;2024-03-29T09:10:08;10.90;1.00
2202;DHT22;1107;48.654;9.250;2024-03-29T09:12:35;10.90;1.00
2202;DHT22;1107;48.654;9.250;2024-03-29T09:15:03;10.90;1.00
2202;DHT22;1107;48.654;9.250;2024-03-29T09:17:34;11.00;1.00
2202;DHT22;1107;48.654;9.250;2024-03-29T09:20:00;11.00;99.90
2202;DHT22;1107;48.654;9.250;2024-03-29T09:22:30;11.00;99.90
2202;DHT22;1107;48.654;9.250;2024-03-29T09:24:56;11.00;1.00
2202;DHT22;1107;48.654;9.250;2024-03-29T09:27:23;10.90;1.00
2202;DHT22;1107;48.654;9.250;2024-03-29T09:29:50;10.80;99.90
2202;DHT22;1107;48.654;9.250;2024-03-29T09:32:18;10.80;99.90
2202;DHT22;1107;48.654;9.250;2024-03-29T09:34:45;10.70;99.90
2202;DHT22;1107;48.654;9.250;2024-03-29T09:37:12;10.70;1.00
2202;DHT22;1107;48.654;9.250;2024-03-29T09:39:38;10.60;99.90
2202;DHT22;1107;48.654;9.250;2024-03-29T09:42:06;10.50;1.00
2202;DHT22;1107;48.654;9.250;2024-03-29T09:44:33;10.60;1.00
2202;DHT22;1107;48.654;9.250;2024-03-29T09:47:02;10.80;99.90
2202;DHT22;1107;48.654;9.250;2024-03-29T09:49:30;11.00;99.90
2202;DHT22;1107;48.654;9.250;2024-03-29T09:51:57;11.30;99.90
2202;DHT22;1107;48.654;9.250;2024-03-29T09:54:26;11.70;99.90
2202;DHT22;1107;48.654;9.250;2024-03-29T09:56:54;12.30;62.50
2202;DHT22;1107;48.654;9.250;2024-03-29T09:59:22;12.50;1.00
2202;DHT22;1107;48.654;9.250;2024-03-29T10:01:51;12.60;1.00
2202;DHT22;1107;48.654;9.250;2024-03-29T10:04:20;12.60;1.00
2202;DHT22;1107;48.654;9.250;2024-03-29T10:06:48;12.70;1.00
2202;DHT22;1107;48.654;9.250;2024-03-29T10:09:16;12.80;1.00
2202;DHT22;1107;48.654;9.250;2024-03-29T10:11:44;12.90;1.00
2202;DHT22;1107;48.654;9.250;2024-03-29T10:14:10;13.10;1.00
2202;DHT22;1107;48.654;9.250;2024-03-29T10:16:37;13.30;99.90
2202;DHT22;1107;48.654;9.250;2024-03-29T10:19:04;13.60;99.90
2202;DHT22;1107;48.654;9.250;2024-03-29T10:21:32;13.90;1.00
2202;DHT22;1107;48.654;9.250;2024-03-29T10:24:00;14.50;1.00
2202;DHT22;1107;48.654;9.250;2024-03-29T10:26:27;15.00;1.00
2202;DHT22;1107;48.654;9.250;2024-03-29T10:28:54;15.90;1.00
2202;DHT22;1107;48.654;9.250;2024-03-29T10:31:21;16.70;1.00
2202;DHT22;1107;48.654;9.250;2024-03-29T10:33:47;16.30;1.00
2202;DHT22;1107;48.654;9.250;2024-03-29T10:36:16;15.50;1.00
2202;DHT22;1107;48.654;9.250;2024-03-29T10:38:43;14.90;1.00
2202;DHT22;1107;48.654;9.250;2024-03-29T10:41:11;14.50;1.00
2202;DHT22;1107;48.654;9.250;2024-03-29T10:43:38;14.20;1.00
2202;DHT22;1107;48.654;9.250;2024-03-29T10:46:09;14.00;1.00
2202;DHT22;1107;48.654;9.250;2024-03-29T10:48:36;13.90;1.00
2202;DHT22;1107;48.654;9.250;2024-03-29T10:51:03;13.90;1.00
2202;DHT22;1107;48.654;9.250;2024-03-29T10:53:30;13.90;1.00
2202;DHT22;1107;48.654;9.250;2024-03-29T10:55:58;13.70;1.00
2202;DHT22;1107;48.654;9.250;2024-03-29T10:58:29;13.60;1.00
2202;DHT22;1107;48.654;9.250;2024-03-29T11:00:56;13.50;1.00
2202;DHT22;1107;48.654;9.250;2024-03-29T11:03:25;13.50;1.00
2202;DHT22;1107;48.654;9.250;2024-03-29T11:05:56;13.50;1.00
2202;DHT22;1107;48.654;9.250;2024-03-29T11:08:27;13.40;1.00
2202;DHT22;1107;48.654;9.250;2024-03-29T11:10:57;13.40;1.00
2202;DHT22;1107;48.654;9.250;2024-03-29T11:13:30;13.40;1.00
2202;DHT22;1107;48.654;9.250;2024-03-29T11:15:59;13.50;1.00
2202;DHT22;1107;48.654;9.250;2024-03-29T11:18:26;13.60;1.00
2202;DHT22;1107;48.654;9.250;2024-03-29T11:20:54;13.60;1.00
2202;DHT22;1107;48.654;9.250;2024-03-29T11:23:22;13.80;1.00
2202;DHT22;1107;48.654;9.250;2024-03-29T11:25:50;13.90;1.00
2202;DHT22;1107;48.654;9.250;2024-03-29T11:28:23;13.90;1.00
2202;DHT22;1107;48.654;9.250;2024-03-29T11:30:53;13.90;1.00
2202;DHT22;1107;48.654;9.250;2024-03-29T11:33:28;13.90;1.00
2202;DHT22;1107;48.654;9.250;2024-03-29T11:35:55;13.90;1.00
2202;DHT22;1107;48.654;9.250;2024-03-29T11:38:22;13.90;1.00
2202;DHT22;1107;48.654;9.250;2024-03-29T11:43:31;14.00;1.00
2202;DHT22;1107;48.654;9.250;2024-03-29T11:46:00;13.90;1.00
2202;DHT22;1107;48.654;9.250;2024-03-29T11:48:28;14.00;1.00
2202;DHT22;1107;48.654;9.250;2024-03-29T11:50:56;14.00;1.00
2202;DHT22;1107;48.654;9.250;2024-03-29T11:53:23;14.00;1.00
2202;DHT22;1107;48.654;9.250;2024-03-29T11:55:50;14.10;1.00
2202;DHT22;1107;48.654;9.250;2024-03-29T11:58:19;14.20;1.00
2202;DHT22;1107;48.654;9.250;2024-03-29T12:00:46;14.50;1.00
2202;DHT22;1107;48.654;9.250;2024-03-29T12:03:15;14.90;1.00
2202;DHT22;1107;48.654;9.250;2024-03-29T12:05:42;15.50;1.00
2202;DHT22;1107;48.654;9.250;2024-03-29T12:08:09;16.50;1.00
2202;DHT22;1107;48.654;9.250;2024-03-29T12:10:36;17.00;1.00
2202;DHT22;1107;48.654;9.250;2024-03-29T12:13:04;17.70;1.00
2202;DHT22;1107;48.654;9.250;2024-03-29T12:15:31;17.90;1.00
2202;DHT22;1107;48.654;9.250;2024-03-29T12:17:59;18.00;99.90
2202;DHT22;1107;48.654;9.250;2024-03-29T12:20:28;18.20;99.90
2202;DHT22;1107;48.654;9.250;2024-03-29T12:22:55;18.40;99.90
2202;DHT22;1107;48.654;9.250;2024-03-29T12:25:21;19.00;99.90
2202;DHT22;1107;48.654;9.250;2024-03-29T12:27:48;19.40;99.90
2202;DHT22;1107;48.654;9.250;2024-03-29T12:30:15;19.90;99.90
2202;DHT22;1107;48.654;9.250;2024-03-29T12:32:42;20.20;99.90
2202;DHT22;1107;48.654;9.250;2024-03-29T12:35:09;20.80;99.90
2202;DHT22;1107;48.654;9.250;2024-03-29T12:37:37;21.40;99.90
2202;DHT22;1107;48.654;9.250;2024-03-29T12:40:04;21.30;99.90
2202;DHT22;1107;48.654;9.250;2024-03-29T12:42:37;20.90;99.90
2202;DHT22;1107;48.654;9.250;2024-03-29T12:45:04;20.10;99.90
2202;DHT22;1107;48.654;9.250;2024-03-29T12:47:32;19.40;99.90
2202;DHT22;1107;48.654;9.250;2024-03-29T12:49:59;18.80;99.90
2202;DHT22;1107;48.654;9.250;2024-03-29T12:52:26;18.40;99.90
2202;DHT22;1107;48.654;9.250;2024-03-29T12:54:54;17.90;99.90
2202;DHT22;1107;48.654;9.250;2024-03-29T12:57:21;17.40;99.90
2202;DHT22;1107;48.654;9.250;2024-03-29T12:59:48;17.30;99.90
2202;DHT22;1107;48.654;9.250;2024-03-29T13:02:15;17.70;99.90
2202;DHT22;1107;48.654;9.250;2024-03-29T13:04:42;19.40;99.90
2202;DHT22;1107;48.654;9.250;2024-03-29T13:07:11;20.10;99.90
2202;DHT22;1107;48.654;9.250;2024-03-29T13:09:39;21.30;99.90
2202;DHT22;1107;48.654;9.250;2024-03-29T13:12:07;22.30;99.90
2202;DHT22;1107;48.654;9.250;2024-03-29T13:14:34;22.90;99.90
2202;DHT22;1107;48.654;9.250;2024-03-29T13:17:01;23.60;99.90
2202;DHT22;1107;48.654;9.250;2024-03-29T13:19:28;24.00;99.90
2202;DHT22;1107;48.654;9.250;2024-03-29T13:21:53;24.10;99.90
2202;DHT22;1107;48.654;9.250;2024-03-29T13:24:20;23.80;99.90
2202;DHT22;1107;48.654;9.250;2024-03-29T13:26:47;23.80;99.90
2202;DHT22;1107;48.654;9.250;2024-03-29T13:29:15;24.00;99.90
2202;DHT22;1107;48.654;9.250;2024-03-29T13:31:42;24.00;99.90
2202;DHT22;1107;48.654;9.250;2024-03-29T13:34:09;24.00;99.90
2202;DHT22;1107;48.654;9.250;2024-03-29T13:36:38;23.90;99.90
2202;DHT22;1107;48.654;9.250;2024-03-29T13:39:05;23.80;99.90
2202;DHT22;1107;48.654;9.250;2024-03-29T13:41:32;23.60;99.90
2202;DHT22;1107;48.654;9.250;2024-03-29T13:44:01;23.50;99.90
2202;DHT22;1107;48.654;9.250;2024-03-29T13:46:34;23.50;99.90
2202;DHT22;1107;48.654;9.250;2024-03-29T13:49:01;23.50;99.90
2202;DHT22;1107;48.654;9.250;2024-03-29T13:51:28;23.40;99.90
2202;DHT22;1107;48.654;9.250;2024-03-29T13:53:55;23.10;99.90
2202;DHT22;1107;48.654;9.250;2024-03-29T13:56:24;23.30;99.90
2202;DHT22;1107;48.654;9.250;2024-03-29T13:58:50;23.10;99.90
2202;DHT22;1107;48.654;9.250;2024-03-29T14:01:17;23.00;99.90
2202;DHT22;1107;48.654;9.250;2024-03-29T14:03:45;22.80;99.90
2202;DHT22;1107;48.654;9.250;2024-03-29T14:06:12;22.80;99.90
2202;DHT22;1107;48.654;9.250;2024-03-29T14:08:39;22.90;99.90
2202;DHT22;1107;48.654;9.250;2024-03-29T14:11:06;22.80;99.90
2202;DHT22;1107;48.654;9.250;2024-03-29T14:13:32;22.60;99.90
2202;DHT22;1107;48.654;9.250;2024-03-29T14:15:59;22.30;99.90
2202;DHT22;1107;48.654;9.250;2024-03-29T14:18:26;22.10;99.90
2202;DHT22;1107;48.654;9.250;2024-03-29T14:20:54;22.00;99.90
2202;DHT22;1107;48.654;9.250;2024-03-29T14:23:22;22.00;99.90
2202;DHT22;1107;48.654;9.250;2024-03-29T14:25:50;21.70;99.90
2202;DHT22;1107;48.654;9.250;2024-03-29T14:28:17;21.60;99.90
2202;DHT22;1107;48.654;9.250;2024-03-29T14:30:44;21.60;99.90
2202;DHT22;1107;48.654;9.250;2024-03-29T14:33:11;21.70;99.90
2202;DHT22;1107;48.654;9.250;2024-03-29T14:35:38;21.90;99.90
2202;DHT22;1107;48.654;9.250;2024-03-29T14:38:06;21.90;99.90
2202;DHT22;1107;48.654;9.250;2024-03-29T14:40:33;21.70;99.90
2202;DHT22;1107;48.654;9.250;2024-03-29T14:43:00;21.70;99.90
2202;DHT22;1107;48.654;9.250;2024-03-29T14:45:26;21.50;99.90
2202;DHT22;1107;48.654;9.250;2024-03-29T14:47:53;21.60;99.90
2202;DHT22;1107;48.654;9.250;2024-03-29T14:50:20;21.60;99.90
2202;DHT22;1107;48.654;9.250;2024-03-29T14:52:47;21.60;99.90
2202;DHT22;1107;48.654;9.250;2024-03-29T14:55:15;21.70;99.90
2202;DHT22;1107;48.654;9.250;2024-03-29T14:57:41;21.70;99.90
2202;DHT22;1107;48.654;9.250;2024-03-29T15:00:08;21.60;99.90
2202;DHT22;1107;48.654;9.250;2024-03-29T15:02:36;21.50;99.90
2202;DHT22;1107;48.654;9.250;2024-03-29T15:05:03;21.40;99.90
2202;DHT22;1107;48.654;9.250;2024-03-29T15:07:31;21.20;99.90
2202;DHT22;1107;48.654;9.250;2024-03-29T15:09:58;20.90;99.90
2202;DHT22;1107;48.654;9.250;2024-03-29T15:12:27;20.60;99.90
2202;DHT22;1107;48.654;9.250;2024-03-29T15:14:54;20.40;99.90
2202;DHT22;1107;48.654;9.250;2024-03-29T15:17:20;20.20;99.90
2202;DHT22;1107;48.654;9.250;2024-03-29T15:19:47;20.20;99.90
2202;DHT22;1107;48.654;9.250;2024-03-29T15:22:16;20.20;99.90
2202;DHT22;1107;48.654;9.250;2024-03-29T15:24:43;20.00;99.90
2202;DHT22;1107;48.654;9.250;2024-03-29T15:27:09;19.80;99.90
2202;DHT22;1107;48.654;9.250;2024-03-29T15:29:54;19.60;99.90
2202;DHT22;1107;48.654;9.250;2024-03-29T15:32:21;19.40;99.90
2202;DHT22;1107;48.654;9.250;2024-03-29T15:34:48;19.10;99.90
2202;DHT22;1107;48.654;9.250;2024-03-29T15:37:15;18.90;99.90
2202;DHT22;1107;48.654;9.250;2024-03-29T15:39:41;18.80;99.90
2202;DHT22;1107;48.654;9.250;2024-03-29T15:42:08;18.60;99.90
2202;DHT22;1107;48.654;9.250;2024-03-29T15:44:35;18.40;99.90
2202;DHT22;1107;48.654;9.250;2024-03-29T15:47:04;18.30;99.90
2202;DHT22;1107;48.654;9.250;2024-03-29T15:49:31;18.10;99.90
2202;DHT22;1107;48.654;9.250;2024-03-29T15:51:58;18.00;99.90
2202;DHT22;1107;48.654;9.250;2024-03-29T15:54:24;17.80;99.90
2202;DHT22;1107;48.654;9.250;2024-03-29T15:56:52;17.70;99.90
2202;DHT22;1107;48.654;9.250;2024-03-29T15:59:19;17.50;99.90
2202;DHT22;1107;48.654;9.250;2024-03-29T16:01:48;17.40;99.90
2202;DHT22;1107;48.654;9.250;2024-03-29T16:04:16;17.30;99.90
2202;DHT22;1107;48.654;9.250;2024-03-29T16:06:42;17.20;99.90
2202;DHT22;1107;48.654;9.250;2024-03-29T16:09:10;17.10;99.90
2202;DHT22;1107;48.654;9.250;2024-03-29T16:11:37;17.00;1.00
2202;DHT22;1107;48.654;9.250;2024-03-29T16:14:04;16.90;1.00
2202;DHT22;1107;48.654;9.250;2024-03-29T16:16:31;16.80;1.00